Terminal Aerodrome Forecast
Issued by NWS

Home | Current Version | Previous Version | Text Only | Print | Product List | Glossary On
Versions: 1 2 3 4 5 6 7 8 9 10 11 12
382
FTUS45 KVEF 280520
TAFDAG
TAF
KDAG 280520Z 2806/2906 26022G31KT P6SM FEW250
     FM280700 26015G22KT P6SM FEW250
     FM281200 26010G19KT P6SM FEW250
     FM281700 33012G20KT P6SM SKC
     FM290200 36010KT P6SM SKC=

USA.gov is the U.S. government's official web portal to all federal, state and local government web resources and services.